createdAt,value
2022-08-26T00:01:46.782Z,77.54
2022-08-26T00:04:14.306Z,77.27
2022-08-26T00:06:42.565Z,76.70
2022-08-26T00:09:16.194Z,77.10
2022-08-26T00:11:45.993Z,76.71
2022-08-26T00:14:16.277Z,76.67
2022-08-26T00:16:47.920Z,76.93
2022-08-26T00:19:21.324Z,77.30
2022-08-26T00:21:50.084Z,77.15
2022-08-26T00:24:20.885Z,77.07
2022-08-26T00:26:48.568Z,76.32
2022-08-26T00:29:16.238Z,76.50
2022-08-26T00:31:45.056Z,76.83
2022-08-26T00:34:13.909Z,76.97
2022-08-26T00:36:40.992Z,76.85
2022-08-26T00:39:08.198Z,76.80
2022-08-26T00:41:37.819Z,76.64
2022-08-26T00:44:05.188Z,77.69
2022-08-26T00:46:37.164Z,77.48
2022-08-26T00:49:15.915Z,76.85
2022-08-26T00:51:52.447Z,76.60
2022-08-26T00:54:22.945Z,76.40
2022-08-26T00:57:00.337Z,76.29
2022-08-26T00:59:29.282Z,76.03
2022-08-26T01:02:02.860Z,76.20
2022-08-26T01:04:33.540Z,75.95
2022-08-26T01:07:00.526Z,76.09
2022-08-26T01:09:28.380Z,76.72
2022-08-26T01:12:01.106Z,77.17
2022-08-26T01:14:35.158Z,77.86
2022-08-26T01:17:05.850Z,77.64
2022-08-26T01:19:44.568Z,78.65
2022-08-26T01:22:52.376Z,77.40
2022-08-26T01:25:20.591Z,78.07
2022-08-26T01:27:49.183Z,78.20
2022-08-26T01:30:18.594Z,78.89
2022-08-26T01:32:46.385Z,78.89
2022-08-26T01:35:13.313Z,78.78
2022-08-26T01:37:41.489Z,79.13
2022-08-26T01:40:14.509Z,78.77
2022-08-26T01:42:44.590Z,79.34
2022-08-26T01:45:25.369Z,79.02
2022-08-26T01:47:56.854Z,79.74
2022-08-26T01:50:30.744Z,79.67
2022-08-26T01:53:01.479Z,80.11
2022-08-26T01:55:32.969Z,80.97
2022-08-26T01:58:05.252Z,82.43
2022-08-26T02:00:34.497Z,82.71
2022-08-26T02:03:17.617Z,82.00
2022-08-26T02:06:09.421Z,82.25
2022-08-26T02:08:49.758Z,82.37
2022-08-26T02:11:18.317Z,82.12
2022-08-26T02:13:48.641Z,82.48
2022-08-26T02:16:18.578Z,82.24
2022-08-26T02:18:48.799Z,83.02
2022-08-26T02:21:17.082Z,83.05
2022-08-26T02:23:44.433Z,82.52
2022-08-26T02:26:19.185Z,83.31
2022-08-26T02:29:16.340Z,82.97
2022-08-26T02:31:43.342Z,82.83
2022-08-26T02:34:19.637Z,83.28
2022-08-26T02:36:46.784Z,82.84
2022-08-26T02:39:16.950Z,83.04
2022-08-26T02:41:49.236Z,83.70
2022-08-26T02:44:16.248Z,83.70
2022-08-26T02:46:47.066Z,84.34
2022-08-26T02:49:15.367Z,84.36
2022-08-26T02:51:43.997Z,84.42
2022-08-26T02:54:10.923Z,84.82
2022-08-26T02:56:37.883Z,85.51
2022-08-26T02:59:05.167Z,84.60
2022-08-26T03:01:34.658Z,84.63
2022-08-26T03:04:04.290Z,84.77
2022-08-26T03:06:31.352Z,84.44
2022-08-26T03:08:59.603Z,84.24
2022-08-26T03:11:29.738Z,83.88
2022-08-26T03:14:03.407Z,84.58
2022-08-26T03:16:35.755Z,84.25
2022-08-26T03:19:04.983Z,84.48
2022-08-26T03:21:33.360Z,84.19
2022-08-26T03:24:00.507Z,83.88
2022-08-26T03:26:28.891Z,83.68
2022-08-26T03:29:15.763Z,83.78
2022-08-26T03:31:43.666Z,84.04
2022-08-26T03:34:14.300Z,83.88
2022-08-26T03:36:41.993Z,83.84
2022-08-26T03:39:11.573Z,83.90
2022-08-26T03:41:39.027Z,83.93
2022-08-26T03:44:08.862Z,84.17
2022-08-26T03:46:36.544Z,84.46
2022-08-26T03:49:06.024Z,84.38
2022-08-26T03:51:34.667Z,84.15
2022-08-26T03:54:06.200Z,84.12
2022-08-26T03:56:36.668Z,83.86
2022-08-26T03:59:05.004Z,83.56
2022-08-26T04:01:35.266Z,84.00
2022-08-26T04:04:03.272Z,82.97
2022-08-26T04:06:48.348Z,82.73
2022-08-26T04:09:21.034Z,82.12
2022-08-26T04:11:50.346Z,81.47
2022-08-26T04:14:23.850Z,81.29
2022-08-26T04:16:52.129Z,81.52
2022-08-26T04:19:19.818Z,81.37
2022-08-26T04:21:48.798Z,81.22
2022-08-26T04:24:16.440Z,81.13
2022-08-26T04:26:44.784Z,81.22
2022-08-26T04:29:20.332Z,80.27
2022-08-26T04:31:50.214Z,80.18
2022-08-26T04:34:24.336Z,79.71
2022-08-26T04:36:54.426Z,79.50
2022-08-26T04:39:21.611Z,79.43
2022-08-26T04:41:50.895Z,79.30
2022-08-26T04:44:18.338Z,79.05
2022-08-26T04:46:45.512Z,79.05
2022-08-26T04:49:13.695Z,79.07
2022-08-26T04:51:40.616Z,78.65
2022-08-26T04:54:07.612Z,78.48
2022-08-26T04:56:37.872Z,77.87
2022-08-26T04:59:08.130Z,77.50
2022-08-26T05:01:49.911Z,77.23
2022-08-26T05:04:19.199Z,76.96
2022-08-26T05:06:48.274Z,76.67
2022-08-26T05:09:16.052Z,76.44
2022-08-26T05:11:43.251Z,76.05
2022-08-26T05:14:10.601Z,75.83
2022-08-26T05:16:38.883Z,75.62
2022-08-26T05:19:08.644Z,75.37
2022-08-26T05:21:35.917Z,75.42
2022-08-26T05:24:04.692Z,75.30
2022-08-26T05:26:33.007Z,75.34
2022-08-26T05:29:01.542Z,75.77
2022-08-26T05:31:31.640Z,75.82
2022-08-26T05:34:00.458Z,75.57
2022-08-26T05:36:33.474Z,75.19
2022-08-26T05:39:01.673Z,75.00
2022-08-26T05:41:34.519Z,74.84
2022-08-26T05:44:07.277Z,74.42
2022-08-26T05:46:34.792Z,74.03
2022-08-26T05:49:03.945Z,73.48
2022-08-26T05:51:31.199Z,72.96
2022-08-26T05:53:58.314Z,72.76
2022-08-26T05:56:27.751Z,72.63
2022-08-26T05:58:58.504Z,71.97
2022-08-26T06:01:28.113Z,71.68
2022-08-26T06:03:59.777Z,71.04
2022-08-26T06:06:34.523Z,70.27
2022-08-26T06:09:05.530Z,70.46
2022-08-26T06:11:33.406Z,70.27
2022-08-26T06:14:04.397Z,69.55
2022-08-26T06:16:34.954Z,69.08
2022-08-26T06:19:10.586Z,68.77
2022-08-26T06:21:40.189Z,68.05
2022-08-26T06:24:28.857Z,67.82
2022-08-26T06:27:09.643Z,66.99
2022-08-26T06:29:38.915Z,66.97
2022-08-26T06:32:06.866Z,65.98
2022-08-26T06:34:33.941Z,66.07
2022-08-26T06:37:06.445Z,65.54
2022-08-26T06:39:33.915Z,65.78
2022-08-26T06:42:02.668Z,65.42
2022-08-26T06:44:33.733Z,65.47
2022-08-26T06:47:00.944Z,64.89
2022-08-26T06:49:27.950Z,64.66
2022-08-26T06:51:58.562Z,64.12
2022-08-26T06:54:26.583Z,63.99
2022-08-26T06:56:53.951Z,64.09
2022-08-26T06:59:21.926Z,63.61
2022-08-26T07:01:49.618Z,63.71
2022-08-26T07:04:21.816Z,63.37
2022-08-26T07:06:52.736Z,62.79
2022-08-26T07:09:22.340Z,62.27
2022-08-26T07:11:51.435Z,62.15
2022-08-26T07:14:19.382Z,61.37
2022-08-26T07:16:49.687Z,61.64
2022-08-26T07:19:30.317Z,61.55
2022-08-26T07:22:03.846Z,60.67
2022-08-26T07:24:33.628Z,60.54
2022-08-26T07:27:05.640Z,60.38
2022-08-26T07:29:33.360Z,59.88
2022-08-26T07:32:00.605Z,59.67
2022-08-26T07:34:27.733Z,59.94
2022-08-26T07:36:56.270Z,59.68
2022-08-26T07:39:23.951Z,59.20
2022-08-26T07:41:52.286Z,58.49
2022-08-26T07:44:19.805Z,58.21
2022-08-26T07:46:53.069Z,58.06
2022-08-26T07:49:22.824Z,57.39
2022-08-26T07:51:50.955Z,57.41
2022-08-26T07:54:17.924Z,56.67
2022-08-26T07:56:46.208Z,56.18
2022-08-26T07:59:15.111Z,56.04
2022-08-26T08:01:44.899Z,55.57
2022-08-26T08:04:17.308Z,55.09
2022-08-26T08:06:46.023Z,54.78
2022-08-26T08:09:16.098Z,54.26
2022-08-26T08:11:44.738Z,54.30
2022-08-26T08:14:13.188Z,53.76
2022-08-26T08:16:45.989Z,54.16
2022-08-26T08:19:16.166Z,54.16
2022-08-26T08:21:44.093Z,53.36
2022-08-26T08:24:11.948Z,52.95
2022-08-26T08:26:39.821Z,52.91
2022-08-26T08:29:08.892Z,52.40
2022-08-26T08:31:56.115Z,52.01
2022-08-26T08:34:26.483Z,51.75
2022-08-26T08:36:53.870Z,51.34
2022-08-26T08:39:22.446Z,50.73
2022-08-26T08:42:14.156Z,50.13
2022-08-26T08:44:44.437Z,50.67
2022-08-26T08:47:43.174Z,49.56
2022-08-26T08:50:20.575Z,49.73
2022-08-26T08:53:01.177Z,48.51
2022-08-26T08:55:43.128Z,48.23
2022-08-26T08:58:19.745Z,49.68
2022-08-26T09:01:01.964Z,49.60
2022-08-26T09:03:43.454Z,48.64
2022-08-26T09:06:17.380Z,49.10
2022-08-26T09:08:50.602Z,47.68
2022-08-26T09:11:20.484Z,47.41
2022-08-26T09:13:55.491Z,46.69
2022-08-26T09:16:47.214Z,45.39
2022-08-26T09:19:24.948Z,44.75
2022-08-26T09:21:57.416Z,44.84
2022-08-26T09:24:28.488Z,45.62
2022-08-26T09:26:58.328Z,46.19
2022-08-26T09:29:28.716Z,46.70
2022-08-26T09:32:15.172Z,45.00
2022-08-26T09:35:17.387Z,45.48
2022-08-26T09:40:29.203Z,45.25
2022-08-26T09:43:22.375Z,43.87
2022-08-26T09:45:59.234Z,44.34
2022-08-26T09:48:35.569Z,43.60
2022-08-26T09:51:28.370Z,41.65
2022-08-26T09:53:57.086Z,42.29
2022-08-26T09:56:23.910Z,41.79
2022-08-26T09:58:53.134Z,42.05
2022-08-26T10:01:23.260Z,41.29
2022-08-26T10:03:51.588Z,41.86
2022-08-26T10:06:20.955Z,41.73
2022-08-26T10:08:53.046Z,42.01
2022-08-26T10:11:35.239Z,41.11
2022-08-26T10:14:08.374Z,41.28
2022-08-26T10:16:41.136Z,40.46
2022-08-26T10:19:21.641Z,39.37
2022-08-26T10:22:30.425Z,38.86
2022-08-26T10:25:02.776Z,40.33
2022-08-26T10:27:54.235Z,38.69
2022-08-26T10:30:27.337Z,39.55
2022-08-26T10:33:04.119Z,37.81
2022-08-26T10:35:33.814Z,38.81
2022-08-26T10:38:14.535Z,37.87
2022-08-26T10:40:44.053Z,38.91
2022-08-26T10:43:25.792Z,38.99
2022-08-26T10:46:03.236Z,38.95
2022-08-26T10:48:42.342Z,38.34
2022-08-26T10:51:12.693Z,37.22
2022-08-26T10:53:44.317Z,37.36
2022-08-26T10:56:40.115Z,38.60
2022-08-26T10:59:14.592Z,38.96
2022-08-26T11:01:56.709Z,38.81
2022-08-26T11:04:34.930Z,37.73
2022-08-26T11:07:46.229Z,34.61
2022-08-26T11:10:19.229Z,36.74
2022-08-26T11:12:49.424Z,36.04
2022-08-26T11:15:26.532Z,32.80
2022-08-26T11:17:55.365Z,35.10
2022-08-26T11:20:28.122Z,33.34
2022-08-26T11:23:16.311Z,33.52
2022-08-26T11:26:01.346Z,33.20
2022-08-26T11:28:35.565Z,32.55
2022-08-26T11:31:05.558Z,33.24
2022-08-26T11:33:54.196Z,31.25
2022-08-26T11:36:45.530Z,29.56
2022-08-26T11:39:30.610Z,29.78
2022-08-26T11:42:16.003Z,29.87
2022-08-26T11:44:49.117Z,30.04
2022-08-26T11:47:25.287Z,29.73
2022-08-26T11:50:17.490Z,28.70
2022-08-26T11:53:04.361Z,29.03
2022-08-26T11:55:36.763Z,29.73
2022-08-26T11:58:05.721Z,28.86
2022-08-26T12:00:45.728Z,27.62
2022-08-26T12:03:19.681Z,28.16
2022-08-26T12:05:49.887Z,27.08
2022-08-26T12:08:21.720Z,27.82
2022-08-26T12:10:49.164Z,28.80
2022-08-26T12:13:26.446Z,27.98
2022-08-26T12:15:56.511Z,27.27
2022-08-26T12:18:35.780Z,25.92
2022-08-26T12:21:16.276Z,27.74
2022-08-26T12:23:47.833Z,28.96
2022-08-26T12:26:21.099Z,27.14
2022-08-26T12:28:52.951Z,28.70
2022-08-26T12:31:41.602Z,29.34
2022-08-26T12:34:18.019Z,28.63
2022-08-26T12:36:56.542Z,27.97
2022-08-26T12:39:33.074Z,27.50
2022-08-26T12:42:04.201Z,28.39
2022-08-26T12:44:38.331Z,27.93
2022-08-26T12:47:10.000Z,26.72
2022-08-26T12:49:39.535Z,26.86
2022-08-26T12:52:29.983Z,26.83
2022-08-26T12:55:17.571Z,26.57
2022-08-26T12:57:45.118Z,26.10
2022-08-26T13:00:30.427Z,25.63
2022-08-26T13:02:58.905Z,25.66
2022-08-26T13:05:35.695Z,24.19
2022-08-26T13:08:17.059Z,24.67
2022-08-26T13:10:47.059Z,24.86
2022-08-26T13:13:16.264Z,24.64
2022-08-26T13:15:44.150Z,24.03
2022-08-26T13:18:11.519Z,24.50
2022-08-26T13:20:44.472Z,25.39
2022-08-26T13:23:12.362Z,25.13
2022-08-26T13:25:39.398Z,24.07
2022-08-26T13:28:07.286Z,24.20
2022-08-26T13:30:34.186Z,22.33
2022-08-26T13:33:02.227Z,21.27
2022-08-26T13:35:31.584Z,21.17
2022-08-26T13:37:58.995Z,23.68
2022-08-26T13:40:26.241Z,24.94
2022-08-26T13:42:53.219Z,26.16
2022-08-26T13:45:20.739Z,26.17
2022-08-26T13:47:47.780Z,27.76
2022-08-26T13:50:15.024Z,28.58
2022-08-26T13:52:41.931Z,29.11
2022-08-26T13:55:09.421Z,28.28
2022-08-26T13:57:36.343Z,27.96
2022-08-26T14:00:05.648Z,26.84
2022-08-26T14:02:38.024Z,27.62
2022-08-26T14:05:05.855Z,29.84
2022-08-26T14:07:32.994Z,30.55
2022-08-26T14:10:00.003Z,30.91
2022-08-26T14:12:28.298Z,31.46
2022-08-26T14:14:55.229Z,31.32
2022-08-26T14:17:24.536Z,27.91
2022-08-26T14:19:52.582Z,26.66
2022-08-26T14:22:22.041Z,24.79
2022-08-26T14:24:50.525Z,24.49
2022-08-26T14:27:20.178Z,24.17
2022-08-26T14:29:47.157Z,23.04
2022-08-26T14:32:26.201Z,21.95
2022-08-26T14:34:54.428Z,21.44
2022-08-26T14:37:21.721Z,22.44
2022-08-26T14:39:48.757Z,22.83
2022-08-26T14:42:20.390Z,23.23
2022-08-26T14:44:53.567Z,23.72
2022-08-26T14:47:20.587Z,23.31
2022-08-26T14:49:47.577Z,23.11
2022-08-26T14:52:14.819Z,22.63
2022-08-26T14:54:42.034Z,22.71
2022-08-26T14:57:13.052Z,22.95
2022-08-26T14:59:45.519Z,23.69
2022-08-26T15:02:32.615Z,24.12
2022-08-26T15:05:02.377Z,23.49
2022-08-26T15:07:29.349Z,23.23
2022-08-26T15:09:56.449Z,22.96
2022-08-26T15:12:23.573Z,22.57
2022-08-26T15:14:51.219Z,22.49
2022-08-26T15:17:18.344Z,22.63
2022-08-26T15:19:45.427Z,21.83
2022-08-26T15:22:12.446Z,21.43
2022-08-26T15:24:39.485Z,22.03
2022-08-26T15:27:06.499Z,21.75
2022-08-26T15:29:36.332Z,21.95
2022-08-26T15:32:05.288Z,21.86
2022-08-26T15:34:32.530Z,21.92
2022-08-26T15:36:59.888Z,21.18
2022-08-26T15:39:27.591Z,21.21
2022-08-26T15:41:59.852Z,21.14
2022-08-26T15:44:27.584Z,20.06
2022-08-26T15:46:58.439Z,20.44
2022-08-26T15:49:27.529Z,20.06
2022-08-26T15:51:55.202Z,20.27
2022-08-26T15:54:24.826Z,19.57
2022-08-26T15:56:53.159Z,20.47
2022-08-26T15:59:22.224Z,20.84
2022-08-26T16:01:50.031Z,20.58
2022-08-26T16:04:18.692Z,20.96
2022-08-26T16:06:50.482Z,20.56
2022-08-26T16:09:20.350Z,20.25
2022-08-26T16:11:47.312Z,19.97
2022-08-26T16:14:14.840Z,20.24
2022-08-26T16:16:41.821Z,20.32
2022-08-26T16:19:09.432Z,20.79
2022-08-26T16:21:36.668Z,21.14
2022-08-26T16:24:05.038Z,21.92
2022-08-26T16:26:34.788Z,22.05
2022-08-26T16:29:04.258Z,22.82
2022-08-26T16:31:31.291Z,23.19
2022-08-26T16:33:58.582Z,23.71
2022-08-26T16:36:25.547Z,24.01
2022-08-26T16:38:56.408Z,24.61
2022-08-26T16:41:25.227Z,25.34
2022-08-26T16:43:53.072Z,25.75
2022-08-26T16:46:22.339Z,27.57
2022-08-26T16:48:49.807Z,27.92
2022-08-26T16:51:23.105Z,27.88
2022-08-26T16:53:51.299Z,28.48
2022-08-26T16:56:23.665Z,29.30
2022-08-26T16:59:00.506Z,30.43
2022-08-26T17:01:29.082Z,30.86
2022-08-26T17:03:56.284Z,31.84
2022-08-26T17:06:23.367Z,32.48
2022-08-26T17:08:50.402Z,32.48
2022-08-26T17:11:17.467Z,32.77
2022-08-26T17:13:44.491Z,32.68
2022-08-26T17:16:12.682Z,33.03
2022-08-26T17:18:39.956Z,33.39
2022-08-26T17:21:09.518Z,33.58
2022-08-26T17:23:37.797Z,33.96
2022-08-26T17:26:05.477Z,33.88
2022-08-26T17:28:32.880Z,34.32
2022-08-26T17:31:00.170Z,34.30
2022-08-26T17:33:28.432Z,35.03
2022-08-26T17:35:56.300Z,34.93
2022-08-26T17:38:24.171Z,35.43
2022-08-26T17:40:52.474Z,35.45
2022-08-26T17:43:19.911Z,36.36
2022-08-26T17:45:47.095Z,36.83
2022-08-26T17:48:14.624Z,37.16
2022-08-26T17:50:43.131Z,37.82
2022-08-26T17:53:18.867Z,38.12
2022-08-26T17:55:50.168Z,38.21
2022-08-26T17:58:20.146Z,39.01
2022-08-26T18:00:52.328Z,38.99
2022-08-26T18:03:19.681Z,39.37
2022-08-26T18:05:53.205Z,40.04
2022-08-26T18:08:21.017Z,39.89
2022-08-26T18:10:48.424Z,40.83
2022-08-26T18:13:15.910Z,40.73
2022-08-26T18:15:45.605Z,40.75
2022-08-26T18:18:16.383Z,40.84
2022-08-26T18:20:45.772Z,40.59
2022-08-26T18:23:18.940Z,41.01
2022-08-26T18:25:46.009Z,41.47
2022-08-26T18:28:13.161Z,41.61
2022-08-26T18:30:42.714Z,41.90
2022-08-26T18:33:11.001Z,42.13
2022-08-26T18:35:40.253Z,42.87
2022-08-26T18:38:11.577Z,42.78
2022-08-26T18:40:41.636Z,43.00
2022-08-26T18:43:09.021Z,43.52
2022-08-26T18:45:36.898Z,43.71
2022-08-26T18:48:04.268Z,43.79
2022-08-26T18:50:31.431Z,44.11
2022-08-26T18:52:58.418Z,44.11
2022-08-26T18:55:25.551Z,44.46
2022-08-26T18:57:52.724Z,45.59
2022-08-26T19:00:20.206Z,45.62
2022-08-26T19:02:52.254Z,46.06
2022-08-26T19:05:23.308Z,46.66
2022-08-26T19:07:51.993Z,47.39
2022-08-26T19:10:19.381Z,47.55
2022-08-26T19:12:46.409Z,47.60
2022-08-26T19:15:20.292Z,47.89
2022-08-26T19:17:48.310Z,48.35
2022-08-26T19:20:15.595Z,48.39
2022-08-26T19:22:42.610Z,48.93
2022-08-26T19:25:10.185Z,49.45
2022-08-26T19:27:37.161Z,49.31
2022-08-26T19:30:06.602Z,49.75
2022-08-26T19:32:33.632Z,49.48
2022-08-26T19:35:00.602Z,49.71
2022-08-26T19:37:27.752Z,50.04
2022-08-26T19:39:56.175Z,50.53
2022-08-26T19:42:23.255Z,50.15
2022-08-26T19:45:11.061Z,50.17
2022-08-26T19:47:53.172Z,51.01
2022-08-26T19:50:20.384Z,51.77
2022-08-26T19:52:47.712Z,52.17
2022-08-26T19:55:17.255Z,51.72
2022-08-26T19:57:44.531Z,52.40
2022-08-26T20:00:15.654Z,52.84
2022-08-26T20:02:44.435Z,52.90
2022-08-26T20:05:13.371Z,52.89
2022-08-26T20:07:41.204Z,52.06
2022-08-26T20:10:13.092Z,51.69
2022-08-26T20:12:41.874Z,51.76
2022-08-26T20:15:11.146Z,51.95
2022-08-26T20:17:38.974Z,52.45
2022-08-26T20:20:33.519Z,52.53
2022-08-26T20:23:03.748Z,53.03
2022-08-26T20:25:33.739Z,54.03
2022-08-26T20:28:01.390Z,53.99
2022-08-26T20:30:28.552Z,53.83
2022-08-26T20:32:56.582Z,54.63
2022-08-26T20:35:24.097Z,54.75
2022-08-26T20:37:51.496Z,54.72
2022-08-26T20:40:18.660Z,55.02
2022-08-26T20:42:46.007Z,54.68
2022-08-26T20:45:13.420Z,54.83
2022-08-26T20:47:40.446Z,55.05
2022-08-26T20:50:08.894Z,55.46
2022-08-26T20:52:35.958Z,55.44
2022-08-26T20:55:03.398Z,55.31
2022-08-26T20:57:31.320Z,55.86
2022-08-26T20:59:58.950Z,56.12
2022-08-26T21:02:25.975Z,55.81
2022-08-26T21:04:54.144Z,56.37
2022-08-26T21:07:21.148Z,56.28
2022-08-26T21:09:49.578Z,56.54
2022-08-26T21:12:19.085Z,57.15
2022-08-26T21:14:49.515Z,57.07
2022-08-26T21:17:17.195Z,57.63
2022-08-26T21:19:44.785Z,57.88
2022-08-26T21:22:12.470Z,58.33
2022-08-26T21:24:42.101Z,57.55
2022-08-26T21:27:09.700Z,57.42
2022-08-26T21:29:37.063Z,57.60
2022-08-26T21:32:05.528Z,58.03
2022-08-26T21:34:33.193Z,58.73
2022-08-26T21:37:01.309Z,58.18
2022-08-26T21:39:32.893Z,58.08
2022-08-26T21:42:00.512Z,57.72
2022-08-26T21:44:27.781Z,57.43
2022-08-26T21:46:55.830Z,57.71
2022-08-26T21:49:23.306Z,57.92
2022-08-26T21:51:52.322Z,57.86
2022-08-26T21:54:22.265Z,58.16
2022-08-26T21:56:51.300Z,58.21
2022-08-26T21:59:19.144Z,58.57
2022-08-26T22:01:47.129Z,58.66
2022-08-26T22:04:14.493Z,58.84
2022-08-26T22:06:48.114Z,59.56
2022-08-26T22:09:18.268Z,59.19
2022-08-26T22:11:46.433Z,59.30
2022-08-26T22:14:14.759Z,59.46
2022-08-26T22:16:45.703Z,59.41
2022-08-26T22:19:21.101Z,59.34
2022-08-26T22:21:54.766Z,58.97
2022-08-26T22:24:24.360Z,58.80
2022-08-26T22:26:52.365Z,58.82
2022-08-26T22:29:22.141Z,58.88
2022-08-26T22:31:50.255Z,58.62
2022-08-26T22:34:20.586Z,59.02
2022-08-26T22:36:49.902Z,58.83
2022-08-26T22:39:20.797Z,59.27
2022-08-26T22:41:48.978Z,59.19
2022-08-26T22:44:17.965Z,59.20
2022-08-26T22:46:45.903Z,59.44
2022-08-26T22:49:17.566Z,59.71
2022-08-26T22:51:46.528Z,59.78
2022-08-26T22:54:15.367Z,60.15
2022-08-26T22:56:44.866Z,60.38
2022-08-26T22:59:12.724Z,60.60
2022-08-26T23:01:42.782Z,60.47
2022-08-26T23:04:11.103Z,60.70
2022-08-26T23:06:41.557Z,60.88
2022-08-26T23:09:13.334Z,61.00
2022-08-26T23:11:43.203Z,61.09
2022-08-26T23:14:11.433Z,61.67
2022-08-26T23:16:44.121Z,61.74
2022-08-26T23:19:14.897Z,61.97
2022-08-26T23:21:42.422Z,62.69
2022-08-26T23:24:10.425Z,62.98
2022-08-26T23:26:39.446Z,63.00
2022-08-26T23:29:08.374Z,63.13
2022-08-26T23:31:37.487Z,63.70
2022-08-26T23:34:23.933Z,63.97
2022-08-26T23:36:52.412Z,64.45
2022-08-26T23:39:20.952Z,64.66
2022-08-26T23:41:48.631Z,64.81
2022-08-26T23:44:15.613Z,65.13
2022-08-26T23:46:43.527Z,65.19
2022-08-26T23:49:10.563Z,65.19
2022-08-26T23:51:58.169Z,65.30
2022-08-26T23:54:27.039Z,64.91
2022-08-26T23:56:54.035Z,64.60
2022-08-26T23:59:22.237Z,64.54
